Terminal Aerodrome Forecast
Issued by NWS

Home | Current Version | Previous Version | Text Only | Print | Product List | Glossary On
Versions: 1 2 3 4 5 6 7 8 9 10 11 12 13 14
000
FTUS43 KICT 271340 AAA
TAFCNU
TAF AMD
KCNU 271340Z 2714/2812 11005KT 6SM BR SKC
     FM271500 13008KT P6SM SCT025
     FM271900 15011KT P6SM BKN030
     FM272200 16012KT P6SM VCSH BKN030
     FM280300 15014KT 4SM BR OVC007=

USA.gov is the U.S. government's official web portal to all federal, state and local government web resources and services.